createdAt,value
2018-11-22T13:19:52.174Z,6.38
2018-11-22T13:20:52.300Z,6.45
2018-11-22T13:21:52.429Z,6.31
2018-11-22T13:22:52.571Z,6.32
2018-11-22T13:23:52.698Z,6.32
2018-11-22T13:24:52.872Z,6.32
2018-11-22T13:25:52.955Z,6.43
2018-11-22T13:26:53.103Z,6.37
2018-11-22T13:27:53.234Z,6.32
2018-11-22T13:28:53.362Z,6.38
2018-11-22T13:29:53.490Z,6.47
2018-11-22T13:30:53.619Z,6.40
2018-11-22T13:31:53.755Z,6.37
2018-11-22T13:32:53.888Z,6.40
2018-11-22T13:33:54.017Z,6.42
2018-11-22T13:34:54.151Z,6.46
2018-11-22T13:35:54.280Z,6.47
2018-11-22T13:36:54.413Z,6.45
2018-11-22T13:37:54.544Z,6.47
2018-11-22T13:38:54.681Z,6.40
2018-11-22T13:39:54.815Z,6.30
2018-11-22T13:40:54.950Z,6.37
2018-11-22T13:41:55.077Z,6.43
2018-11-22T13:42:55.207Z,6.30
2018-11-22T13:43:55.339Z,6.28
2018-11-22T13:44:55.479Z,6.30
2018-11-22T13:45:55.610Z,6.30
2018-11-22T13:46:55.742Z,6.34
2018-11-22T13:47:55.869Z,6.34
2018-11-22T13:48:56.073Z,6.35
2018-11-22T13:49:56.157Z,6.40
2018-11-22T13:50:56.283Z,6.35
2018-11-22T13:51:56.418Z,6.32
2018-11-22T13:52:56.611Z,6.45
2018-11-22T13:53:56.612Z,6.32
2018-11-22T13:54:56.744Z,6.32
2018-11-22T13:55:56.891Z,6.42
2018-11-22T13:56:57.005Z,6.21
2018-11-22T13:57:57.156Z,6.40
2018-11-22T13:58:57.330Z,6.35
2018-11-22T13:59:58.351Z,6.34
2018-11-22T14:00:57.554Z,6.34
2018-11-22T14:01:57.686Z,6.42
2018-11-22T14:02:57.820Z,6.38
2018-11-22T14:03:57.973Z,6.32
2018-11-22T14:04:58.098Z,6.38
2018-11-22T14:05:58.232Z,6.35
2018-11-22T14:06:58.364Z,6.40
2018-11-22T14:07:58.516Z,6.38
2018-11-22T14:08:58.642Z,6.40
2018-11-22T14:09:58.774Z,6.32
2018-11-22T14:10:58.903Z,6.38
2018-11-22T14:11:59.102Z,6.35
2018-11-22T14:12:59.348Z,6.30
2018-11-22T14:13:59.353Z,6.34
2018-11-22T14:14:59.486Z,6.32
2018-11-22T14:15:59.632Z,6.34
2018-11-22T14:16:59.764Z,6.38
2018-11-22T14:17:59.896Z,6.34
2018-11-22T14:19:00.042Z,6.40
2018-11-22T14:20:00.172Z,6.45
2018-11-22T14:21:00.298Z,6.45
2018-11-22T14:22:00.432Z,6.45
2018-11-22T14:23:00.563Z,6.46
2018-11-22T14:24:00.702Z,6.38
2018-11-22T14:25:00.851Z,6.42
2018-11-22T14:26:00.983Z,6.49
2018-11-22T14:27:01.170Z,6.43
2018-11-22T14:28:01.267Z,6.43
2018-11-22T14:29:02.665Z,6.40
2018-11-22T14:30:01.545Z,6.50
2018-11-22T14:31:01.674Z,6.53
2018-11-22T14:32:01.838Z,6.49
2018-11-22T14:33:02.403Z,6.49
2018-11-22T14:34:02.033Z,6.35
2018-11-22T14:35:02.168Z,6.50
2018-11-22T14:36:02.306Z,6.45
2018-11-22T14:37:02.435Z,6.49
2018-11-22T14:38:02.567Z,6.46
2018-11-22T14:39:02.705Z,6.40
2018-11-22T14:40:02.865Z,6.37
2018-11-22T14:41:02.989Z,6.37
2018-11-22T14:42:03.223Z,6.45
2018-11-22T14:43:03.232Z,6.35
2018-11-22T14:44:03.372Z,6.42
2018-11-22T14:45:03.500Z,6.34
2018-11-22T14:46:03.662Z,6.38
2018-11-22T14:47:03.791Z,6.38
2018-11-22T14:48:03.960Z,6.46
2018-11-22T14:49:04.085Z,6.35
2018-11-22T14:50:04.209Z,6.47
2018-11-22T14:51:04.833Z,6.40
2018-11-22T14:52:04.489Z,6.30
2018-11-22T14:53:04.607Z,6.45
2018-11-22T14:54:04.736Z,6.47
2018-11-22T14:55:04.869Z,6.40
2018-11-22T14:56:05.304Z,6.40
2018-11-22T14:57:05.130Z,6.34
2018-11-22T14:58:05.261Z,6.32
2018-11-22T14:59:05.382Z,6.34
2018-11-22T15:00:05.525Z,6.43
2018-11-22T15:01:07.291Z,6.47
2018-11-22T15:02:05.832Z,6.43
2018-11-22T15:03:05.970Z,6.46
2018-11-22T15:04:06.113Z,6.49
2018-11-22T15:05:06.246Z,6.52
2018-11-22T15:06:06.372Z,6.46
2018-11-22T15:07:06.503Z,6.57
2018-11-22T15:08:06.679Z,6.52
2018-11-22T15:09:06.897Z,6.46
2018-11-22T15:10:06.895Z,6.50
2018-11-22T15:11:07.029Z,6.50
2018-11-22T15:12:07.154Z,6.45
2018-11-22T15:13:07.537Z,6.53
2018-11-22T15:14:07.419Z,6.49
2018-11-22T15:15:07.545Z,6.42
2018-11-22T15:16:07.702Z,6.45
2018-11-22T15:17:07.863Z,6.47
2018-11-22T15:18:08.002Z,6.53
2018-11-22T15:19:08.139Z,6.49
2018-11-22T15:20:08.297Z,6.50
2018-11-22T15:21:08.423Z,6.49
2018-11-22T15:22:08.657Z,6.50
2018-11-22T15:23:08.619Z,6.47
2018-11-22T15:24:08.749Z,6.46
2018-11-22T15:25:08.875Z,6.45
2018-11-22T15:26:09.012Z,6.55
2018-11-22T15:27:09.141Z,6.47
2018-11-22T15:28:09.339Z,6.52
2018-11-22T15:29:09.343Z,6.52
2018-11-22T15:30:09.475Z,6.43
2018-11-22T15:31:09.603Z,6.38
2018-11-22T15:32:09.747Z,6.40
2018-11-22T15:33:16.165Z,6.38
2018-11-22T15:34:10.052Z,6.45
2018-11-22T15:35:10.193Z,6.31
2018-11-22T15:36:10.350Z,6.30
2018-11-22T15:37:10.478Z,6.42
2018-11-22T15:38:10.662Z,6.27
2018-11-22T15:39:10.796Z,6.32
2018-11-22T15:40:10.948Z,6.31
2018-11-22T15:41:11.076Z,6.38
2018-11-22T15:42:11.210Z,6.43
2018-11-22T15:43:11.344Z,6.28
2018-11-22T15:44:11.490Z,6.31
2018-11-22T15:45:11.613Z,6.34
2018-11-22T15:46:11.749Z,6.27
2018-11-22T15:47:11.874Z,6.34
2018-11-22T15:48:12.010Z,6.31
2018-11-22T15:49:17.200Z,6.27
2018-11-22T15:50:12.223Z,6.28
2018-11-22T15:51:12.354Z,6.31
2018-11-22T15:52:12.504Z,6.30
2018-11-22T15:53:48.405Z,6.40
2018-11-22T15:54:12.787Z,6.30
2018-11-22T15:55:12.915Z,6.37
2018-11-22T15:56:13.049Z,6.37
2018-11-22T15:57:13.857Z,6.34
2018-11-22T15:58:13.258Z,6.31
2018-11-22T15:59:13.385Z,6.34
2018-11-22T16:00:13.512Z,6.40
2018-11-22T16:01:13.650Z,6.37
2018-11-22T16:02:13.781Z,6.34
2018-11-22T16:03:13.908Z,6.31
2018-11-22T16:04:14.039Z,6.30
2018-11-22T16:05:14.173Z,6.30
2018-11-22T16:06:14.302Z,6.28
2018-11-22T16:07:14.452Z,6.28
2018-11-22T16:08:14.582Z,6.30
2018-11-22T16:09:14.718Z,6.30
2018-11-22T16:10:14.848Z,6.34
2018-11-22T16:11:15.139Z,6.32
2018-11-22T16:12:15.110Z,6.35
2018-11-22T16:13:15.238Z,6.32
2018-11-22T16:14:15.432Z,6.38
2018-11-22T16:15:15.453Z,6.35
2018-11-22T16:16:15.576Z,6.31
2018-11-22T16:17:15.706Z,6.32
2018-11-22T16:18:15.842Z,6.35
2018-11-22T16:19:15.970Z,6.34
2018-11-22T16:20:16.105Z,6.38
2018-11-22T16:21:16.231Z,6.34
2018-11-22T16:22:16.367Z,6.32
2018-11-22T16:23:16.496Z,6.35
2018-11-22T16:24:16.619Z,6.37
2018-11-22T16:25:16.751Z,6.35
2018-11-22T16:26:16.883Z,6.52
2018-11-22T16:27:17.007Z,6.43
2018-11-22T16:28:17.169Z,6.37
2018-11-22T16:29:17.295Z,6.34
2018-11-22T16:30:17.424Z,6.42
2018-11-22T16:31:17.601Z,6.40
2018-11-22T16:32:17.738Z,6.34
2018-11-22T16:33:17.869Z,6.34
2018-11-22T16:34:18.029Z,6.34
2018-11-22T16:35:18.209Z,6.34
2018-11-22T16:36:18.216Z,6.42
2018-11-22T16:37:18.346Z,6.31
2018-11-22T16:38:18.482Z,6.30
2018-11-22T16:39:18.609Z,6.38
2018-11-22T16:40:18.744Z,6.37
2018-11-22T16:41:18.886Z,6.15
2018-11-22T16:42:19.039Z,6.19
2018-11-22T16:43:19.176Z,6.15
2018-11-22T16:44:19.308Z,6.08
2018-11-22T16:45:19.438Z,6.12
2018-11-22T16:46:19.579Z,6.15
2018-11-22T16:47:30.238Z,6.15
2018-11-22T16:48:19.869Z,6.18
2018-11-22T16:49:20.000Z,6.13
2018-11-22T16:50:20.138Z,6.19
2018-11-22T16:51:20.265Z,6.13
2018-11-22T16:52:20.397Z,6.24
2018-11-22T16:53:20.554Z,6.25
2018-11-22T16:54:20.691Z,6.15
2018-11-22T16:55:20.823Z,6.25
2018-11-22T16:56:20.955Z,6.27
2018-11-22T16:57:21.134Z,6.21
2018-11-22T16:58:21.600Z,6.19
2018-11-22T16:59:21.358Z,6.15
2018-11-22T17:00:21.502Z,6.15
2018-11-22T17:01:24.019Z,6.03
2018-11-22T17:02:21.776Z,6.16
2018-11-22T17:03:21.918Z,6.15
2018-11-22T17:04:22.038Z,6.21
2018-11-22T17:05:22.182Z,6.13
2018-11-22T17:06:22.329Z,6.21
2018-11-22T17:07:22.445Z,6.27
2018-11-22T17:08:22.573Z,6.19
2018-11-22T17:09:22.763Z,6.31
2018-11-22T17:11:54.957Z,6.30
2018-11-22T17:12:55.085Z,6.25
2018-11-22T17:13:55.212Z,6.27
2018-11-22T17:14:55.338Z,6.24
2018-11-22T17:15:55.469Z,6.11
2018-11-22T17:16:55.602Z,6.21
2018-11-22T17:17:55.729Z,6.13
2018-11-22T17:18:55.885Z,6.21
2018-11-22T17:19:56.085Z,6.25
2018-11-22T17:20:56.086Z,6.24
2018-11-22T17:21:56.215Z,6.13
2018-11-22T17:22:56.372Z,6.28
2018-11-22T17:23:56.495Z,6.13
2018-11-22T17:24:56.632Z,6.24
2018-11-22T17:25:56.762Z,6.34
2018-11-22T17:26:56.914Z,6.27
2018-11-22T17:27:57.059Z,6.21
2018-11-22T17:28:57.200Z,6.25
2018-11-22T17:29:57.322Z,6.19
2018-11-22T17:30:57.441Z,6.32
2018-11-22T17:31:58.124Z,6.31
2018-11-22T17:32:57.642Z,6.32
2018-11-22T17:33:57.788Z,6.31
2018-11-22T17:34:57.898Z,6.32
2018-11-22T17:35:58.026Z,6.32
2018-11-22T17:36:58.159Z,6.37
2018-11-22T17:37:58.296Z,6.31
2018-11-22T17:38:58.428Z,6.25
2018-11-22T17:39:58.559Z,6.21
2018-11-22T17:40:58.683Z,6.27
2018-11-22T17:41:58.823Z,6.19
2018-11-22T17:42:58.946Z,6.27
2018-11-22T17:43:59.078Z,6.30
2018-11-22T17:44:59.202Z,6.28
2018-11-22T17:46:00.110Z,6.30
2018-11-22T17:46:59.517Z,6.30
2018-11-22T17:48:00.606Z,6.32
2018-11-22T17:48:59.861Z,6.34
2018-11-22T17:49:59.864Z,6.30
2018-11-22T17:50:59.993Z,6.15
2018-11-22T17:52:00.123Z,6.25
2018-11-22T17:53:00.263Z,6.19
2018-11-22T17:54:00.417Z,6.16
2018-11-22T17:55:00.546Z,6.32
2018-11-22T17:56:00.676Z,6.30
2018-11-22T17:57:00.798Z,6.34
2018-11-22T17:58:00.938Z,6.30
2018-11-22T17:59:01.066Z,6.31
2018-11-22T18:00:01.190Z,6.27
2018-11-22T18:01:01.316Z,6.30
2018-11-22T18:02:01.490Z,6.27
2018-11-22T18:03:08.378Z,6.27
2018-11-22T18:04:01.759Z,6.37
2018-11-22T18:05:01.898Z,6.37
2018-11-22T18:06:02.046Z,6.35
2018-11-22T18:07:02.168Z,6.31
2018-11-22T18:08:02.302Z,6.32
2018-11-22T18:09:02.458Z,6.43
2018-11-22T18:10:02.591Z,6.35
2018-11-22T18:11:02.713Z,6.38
2018-11-22T18:12:02.837Z,6.42
2018-11-22T18:13:02.998Z,6.40
2018-11-22T18:14:13.915Z,6.34
2018-11-22T18:15:03.294Z,6.35
2018-11-22T18:16:03.438Z,6.40
2018-11-22T18:17:03.599Z,6.47
2018-11-22T18:18:20.029Z,6.45
2018-11-22T18:19:03.905Z,6.37
2018-11-22T18:20:04.048Z,6.34
2018-11-22T18:21:04.189Z,6.32
2018-11-22T18:23:16.221Z,6.42
2018-11-22T18:24:16.359Z,6.38
2018-11-22T18:25:16.484Z,6.34
2018-11-22T18:26:16.635Z,6.37
2018-11-22T18:27:16.758Z,6.34
2018-11-22T18:28:16.887Z,6.38
2018-11-22T18:29:17.031Z,6.31
2018-11-22T18:30:17.172Z,6.34
2018-11-22T18:31:38.304Z,6.34
2018-11-22T18:32:17.434Z,6.32
2018-11-22T18:33:17.569Z,6.38
2018-11-22T18:34:17.694Z,6.32
2018-11-22T18:35:17.823Z,6.27
2018-11-22T18:36:17.951Z,6.34
2018-11-22T18:37:18.096Z,6.37
2018-11-22T18:38:18.221Z,6.34
2018-11-22T18:39:18.353Z,6.38
2018-11-22T18:40:18.478Z,6.30
2018-11-22T18:41:18.606Z,6.28
2018-11-22T18:42:18.731Z,6.31
2018-11-22T18:43:18.862Z,6.35
2018-11-22T18:44:18.989Z,6.34
2018-11-22T18:45:19.118Z,6.38
2018-11-22T18:46:19.247Z,6.34
2018-11-22T18:47:19.877Z,6.38
2018-11-22T18:48:19.542Z,6.40
2018-11-22T18:49:19.678Z,6.31
2018-11-22T18:50:19.831Z,6.35
2018-11-22T18:51:19.958Z,6.35
2018-11-22T18:52:20.091Z,6.34
2018-11-22T18:53:20.217Z,6.30
2018-11-22T18:54:20.347Z,6.40
2018-11-22T18:55:20.505Z,6.34
2018-11-22T18:56:20.643Z,6.34
2018-11-22T18:57:20.770Z,6.38
2018-11-22T18:58:20.933Z,6.38
2018-11-22T18:59:21.068Z,6.34
2018-11-22T19:00:21.192Z,6.31
2018-11-22T19:01:21.318Z,6.34
2018-11-22T19:02:21.452Z,6.45
2018-11-22T19:03:21.576Z,6.35
2018-11-22T19:04:21.706Z,6.38
2018-11-22T19:05:21.842Z,6.35
2018-11-22T19:06:21.978Z,6.40
2018-11-22T19:07:22.121Z,6.43
2018-11-22T19:08:22.250Z,6.32
2018-11-22T19:09:22.390Z,6.32
2018-11-22T19:10:22.518Z,6.34
2018-11-22T19:11:22.650Z,6.38
2018-11-22T19:12:22.774Z,6.42
2018-11-22T19:13:22.903Z,6.38
2018-11-22T19:14:23.032Z,6.34
2018-11-22T19:15:23.161Z,6.40
2018-11-22T19:16:23.293Z,6.40
2018-11-22T19:17:23.445Z,6.37
2018-11-22T19:18:23.584Z,6.35
2018-11-22T19:19:23.730Z,6.32
2018-11-22T19:20:23.878Z,6.46
2018-11-22T19:21:24.006Z,6.34
2018-11-22T19:22:24.152Z,6.46
2018-11-22T19:23:24.280Z,6.42
2018-11-22T19:24:24.411Z,6.38
2018-11-22T19:25:24.540Z,6.34
2018-11-22T19:26:24.672Z,6.42
2018-11-22T19:27:24.801Z,6.30
2018-11-22T19:28:24.935Z,6.42
2018-11-22T19:29:25.073Z,6.35
2018-11-22T19:30:25.200Z,6.45
2018-11-22T19:31:25.341Z,6.34
2018-11-22T19:32:25.474Z,6.38
2018-11-22T19:33:25.604Z,6.35
2018-11-22T19:34:25.735Z,6.35
2018-11-22T19:35:25.862Z,6.34
2018-11-22T19:36:26.018Z,6.37
2018-11-22T19:37:26.156Z,6.40
2018-11-22T19:38:26.288Z,6.32
2018-11-22T19:39:26.423Z,6.40
2018-11-22T19:40:26.558Z,6.38
2018-11-22T19:41:26.692Z,6.42
2018-11-22T19:42:26.855Z,6.47
2018-11-22T19:43:26.982Z,6.42
2018-11-22T19:44:27.114Z,6.37
2018-11-22T19:45:27.309Z,6.42
2018-11-22T19:46:27.338Z,6.38
2018-11-22T19:47:27.464Z,6.31
2018-11-22T19:48:27.623Z,6.37
2018-11-22T19:49:27.746Z,6.34
2018-11-22T19:50:27.869Z,6.32
2018-11-22T19:51:28.001Z,6.32
2018-11-22T19:52:28.175Z,6.40
2018-11-22T19:53:28.264Z,6.42
2018-11-22T19:54:28.388Z,6.34
2018-11-22T19:55:28.518Z,6.34
2018-11-22T19:56:28.651Z,6.43
2018-11-22T19:57:28.778Z,6.34
2018-11-22T19:58:28.919Z,6.34
2018-11-22T19:59:29.036Z,6.34
2018-11-22T20:00:29.171Z,6.27
2018-11-22T20:01:29.311Z,6.27
2018-11-22T20:02:29.512Z,6.30
2018-11-22T20:03:29.514Z,6.37
2018-11-22T20:04:29.648Z,6.24
2018-11-22T20:05:29.849Z,6.27
2018-11-22T20:06:29.910Z,6.27
2018-11-22T20:07:30.036Z,6.28
2018-11-22T20:08:30.164Z,6.24
2018-11-22T20:09:30.294Z,6.24
2018-11-22T20:10:30.628Z,6.32
2018-11-22T20:11:30.549Z,6.24
2018-11-22T20:12:30.689Z,6.24
2018-11-22T20:13:30.818Z,6.21
2018-11-22T20:14:30.953Z,6.18
2018-11-22T20:15:31.072Z,6.27
2018-11-22T20:16:31.201Z,6.19
2018-11-22T20:17:31.331Z,6.15
2018-11-22T20:18:31.461Z,6.15
2018-11-22T20:19:32.437Z,6.28
2018-11-22T20:20:31.721Z,6.27
2018-11-22T20:21:31.849Z,6.18
2018-11-22T20:22:31.995Z,6.15
2018-11-22T20:23:32.124Z,6.09
2018-11-22T20:24:32.250Z,6.13
2018-11-22T20:25:32.393Z,6.21
2018-11-22T20:26:32.519Z,6.16
2018-11-22T20:27:32.652Z,6.19
2018-11-22T20:28:32.822Z,6.27
2018-11-22T20:29:32.950Z,6.19
2018-11-22T20:30:33.079Z,6.16
2018-11-22T20:31:33.205Z,6.11
2018-11-22T20:32:38.839Z,6.19
2018-11-22T20:33:33.484Z,6.13
2018-11-22T20:34:33.609Z,6.06
2018-11-22T20:35:33.741Z,6.12
2018-11-22T20:36:33.888Z,6.11
2018-11-22T20:37:34.014Z,6.12
2018-11-22T20:38:34.139Z,6.11
2018-11-22T20:39:34.302Z,6.09
2018-11-22T20:40:34.423Z,6.08
2018-11-22T20:41:34.559Z,6.09
2018-11-22T20:42:34.771Z,5.98
2018-11-22T20:43:34.863Z,6.03
2018-11-22T20:44:34.988Z,6.02
2018-11-22T20:45:40.679Z,5.98
2018-11-22T20:46:35.258Z,5.93
2018-11-22T20:47:35.388Z,5.93
2018-11-22T20:48:35.520Z,5.77
2018-11-22T20:49:35.651Z,5.80
2018-11-22T20:50:35.778Z,5.85
2018-11-22T20:51:35.908Z,5.82
2018-11-22T20:52:36.039Z,5.80
2018-11-22T20:53:36.168Z,5.85
2018-11-22T20:54:36.294Z,5.84
2018-11-22T20:55:36.421Z,5.70
2018-11-22T20:56:36.560Z,5.72
2018-11-22T20:57:36.683Z,5.82
2018-11-22T20:58:36.824Z,5.77
2018-11-22T20:59:36.970Z,5.80
2018-11-22T21:00:37.096Z,5.77
2018-11-22T21:01:37.224Z,5.79
2018-11-22T21:02:37.347Z,5.82
2018-11-22T21:03:37.502Z,5.75
2018-11-22T21:04:37.627Z,5.77
2018-11-22T21:05:38.639Z,5.70
2018-11-22T21:06:37.912Z,5.72
2018-11-22T21:07:38.061Z,5.70
2018-11-22T21:08:38.186Z,5.66
2018-11-22T21:09:38.317Z,5.61
2018-11-22T21:10:38.441Z,5.70
2018-11-22T21:11:43.420Z,5.57
2018-11-22T21:12:38.704Z,5.57
2018-11-22T21:13:38.831Z,5.52
2018-11-22T21:14:38.967Z,5.54
2018-11-22T21:15:39.095Z,5.57
2018-11-22T21:16:39.227Z,5.61
2018-11-22T21:17:39.355Z,5.41
2018-11-22T21:18:39.511Z,5.39
2018-11-22T21:19:39.656Z,5.43
2018-11-22T21:20:39.782Z,5.33
2018-11-22T21:21:39.906Z,5.33
2018-11-22T21:22:40.064Z,5.32
2018-11-22T21:23:40.190Z,5.32
2018-11-22T21:24:40.314Z,5.34
2018-11-22T21:25:40.441Z,5.30
2018-11-22T21:26:40.607Z,5.25
2018-11-22T21:27:40.770Z,5.39
2018-11-22T21:28:40.885Z,5.16
2018-11-22T21:29:40.889Z,5.14
2018-11-22T21:30:41.047Z,5.11
2018-11-22T21:31:41.178Z,5.16
2018-11-22T21:32:41.342Z,5.14
2018-11-22T21:33:41.477Z,5.19
2018-11-22T21:34:41.603Z,5.24
2018-11-22T21:35:41.730Z,5.12
2018-11-22T21:36:41.853Z,5.16
2018-11-22T21:37:41.978Z,5.21
2018-11-22T21:38:42.107Z,5.12
2018-11-22T21:39:42.238Z,5.24
2018-11-22T21:40:42.368Z,5.19
2018-11-22T21:41:42.496Z,5.21
2018-11-22T21:42:42.623Z,5.14
2018-11-22T21:43:42.750Z,5.07
2018-11-22T21:44:42.877Z,5.14
2018-11-22T21:45:43.075Z,5.15
2018-11-22T21:46:43.124Z,5.11
2018-11-22T21:47:43.255Z,5.14
2018-11-22T21:48:43.383Z,5.15
2018-11-22T21:49:43.513Z,5.07
2018-11-22T21:50:43.642Z,5.03
2018-11-22T21:51:43.775Z,5.06
2018-11-22T21:52:43.903Z,5.07
2018-11-22T21:53:44.030Z,5.07
2018-11-22T21:54:44.167Z,5.12
2018-11-22T21:55:44.288Z,5.00
2018-11-22T21:56:44.425Z,5.03
2018-11-22T21:57:44.552Z,5.09
2018-11-22T21:58:44.676Z,5.04
2018-11-22T21:59:44.806Z,5.06
2018-11-22T22:00:44.970Z,5.03
2018-11-22T22:01:45.095Z,5.06
2018-11-22T22:02:45.953Z,5.09
2018-11-22T22:03:45.357Z,5.09
2018-11-22T22:04:45.502Z,5.03
2018-11-22T22:05:56.582Z,5.07
2018-11-22T22:06:45.706Z,4.98
2018-11-22T22:07:45.831Z,4.91
2018-11-22T22:08:45.993Z,4.97
2018-11-22T22:09:46.112Z,4.93
2018-11-22T22:10:46.239Z,4.98
2018-11-22T22:11:46.369Z,5.00
2018-11-22T22:12:46.509Z,4.93
2018-11-22T22:13:46.634Z,4.86
2018-11-22T22:14:46.766Z,4.89
2018-11-22T22:15:46.890Z,4.89
2018-11-22T22:16:47.045Z,4.85
2018-11-22T22:17:47.158Z,4.79
2018-11-22T22:18:47.289Z,4.89
2018-11-22T22:19:47.415Z,4.79
2018-11-22T22:20:47.541Z,4.79
2018-11-22T22:21:47.676Z,4.75
2018-11-22T22:22:47.837Z,4.85
2018-11-22T22:23:47.968Z,4.89
2018-11-22T22:24:48.098Z,4.79
2018-11-22T22:25:48.247Z,4.77
2018-11-22T22:26:48.398Z,4.69
2018-11-22T22:27:48.523Z,4.74
2018-11-22T22:28:48.655Z,4.71
2018-11-22T22:29:48.776Z,4.71
2018-11-22T22:30:48.911Z,4.72
2018-11-22T22:31:49.045Z,4.72
2018-11-22T22:32:49.179Z,4.72
2018-11-22T22:33:49.307Z,4.66
2018-11-22T22:34:49.437Z,4.67
2018-11-22T22:35:49.564Z,4.67
2018-11-22T22:36:49.695Z,4.75
2018-11-22T22:37:49.833Z,4.75
2018-11-22T22:38:49.956Z,4.78
2018-11-22T22:39:50.087Z,4.82
2018-11-22T22:40:50.260Z,4.71
2018-11-22T22:41:50.346Z,4.78
2018-11-22T22:42:50.477Z,4.72
2018-11-22T22:43:50.604Z,4.78
2018-11-22T22:44:50.735Z,4.74
2018-11-22T22:45:50.854Z,4.77
2018-11-22T22:46:50.995Z,4.71
2018-11-22T22:47:51.125Z,4.63
2018-11-22T22:48:51.251Z,4.72
2018-11-22T22:49:51.381Z,4.69
2018-11-22T22:50:51.504Z,4.71
2018-11-22T22:51:51.636Z,4.75
2018-11-22T22:52:51.763Z,4.64
2018-11-22T22:53:51.893Z,4.71
2018-11-22T22:54:52.030Z,4.59
2018-11-22T22:55:52.156Z,4.60
2018-11-22T22:56:52.285Z,4.56
2018-11-22T22:57:52.416Z,4.59
2018-11-22T22:58:52.542Z,4.61
2018-11-22T22:59:52.669Z,4.71
2018-11-22T23:00:52.805Z,4.59
2018-11-22T23:01:52.940Z,4.63
2018-11-22T23:02:53.065Z,4.59
2018-11-22T23:03:53.201Z,4.60
2018-11-22T23:04:53.326Z,4.59
2018-11-22T23:05:53.463Z,4.61
2018-11-22T23:06:53.586Z,4.56
2018-11-22T23:07:53.717Z,4.64
2018-11-22T23:08:53.843Z,4.59
2018-11-22T23:09:53.978Z,4.57
2018-11-22T23:10:54.104Z,4.60
2018-11-22T23:11:54.299Z,4.61
2018-11-22T23:12:55.146Z,4.59
2018-11-22T23:13:54.497Z,4.61
2018-11-22T23:14:54.660Z,4.63
2018-11-22T23:15:54.750Z,4.57
2018-11-22T23:16:54.876Z,4.57
2018-11-22T23:17:55.026Z,4.57
2018-11-22T23:18:55.197Z,4.67
2018-11-22T23:19:55.333Z,4.64
2018-11-22T23:20:55.457Z,4.66
2018-11-22T23:21:55.640Z,4.72
2018-11-22T23:22:55.760Z,4.71
2018-11-22T23:23:55.886Z,4.75
2018-11-22T23:24:56.018Z,4.72
2018-11-22T23:25:56.166Z,4.72
2018-11-22T23:26:56.318Z,4.75
2018-11-22T23:27:56.484Z,4.71
2018-11-22T23:28:56.615Z,4.79
2018-11-22T23:29:56.741Z,4.78
2018-11-22T23:30:56.893Z,4.69
2018-11-22T23:31:57.021Z,4.75
2018-11-22T23:32:57.153Z,4.82
2018-11-22T23:33:57.282Z,4.63
2018-11-22T23:34:57.422Z,4.77
2018-11-22T23:35:57.548Z,4.79
2018-11-22T23:36:57.672Z,4.77
2018-11-22T23:37:57.803Z,4.78
2018-11-22T23:38:57.968Z,4.78
2018-11-22T23:39:58.083Z,4.82
2018-11-22T23:40:58.207Z,4.82
2018-11-22T23:41:58.335Z,4.79
2018-11-22T23:42:58.520Z,4.88
2018-11-22T23:43:58.624Z,4.72
2018-11-22T23:44:58.752Z,4.71
2018-11-22T23:45:58.882Z,4.61
2018-11-22T23:46:59.017Z,4.59
2018-11-22T23:47:59.137Z,4.64
2018-11-22T23:48:59.271Z,4.60
2018-11-22T23:49:59.394Z,4.59
2018-11-22T23:50:59.552Z,4.71
2018-11-22T23:51:59.675Z,4.63
2018-11-22T23:52:59.804Z,4.57
2018-11-22T23:53:59.931Z,4.61
2018-11-22T23:55:00.137Z,4.60
2018-11-22T23:56:00.137Z,4.57
2018-11-22T23:57:00.271Z,4.59
2018-11-22T23:58:00.397Z,4.59
2018-11-22T23:59:00.520Z,4.43
